createdAt,value
2023-02-24T00:00:31.187Z,98324.98
2023-02-24T00:03:38.795Z,98320.92
2023-02-24T00:06:45.698Z,98321.90
2023-02-24T00:09:52.172Z,98319.13
2023-02-24T00:12:58.411Z,98313.84
2023-02-24T00:16:06.369Z,98311.23
2023-02-24T00:19:14.987Z,98305.63
2023-02-24T00:22:21.270Z,98300.45
2023-02-24T00:25:25.774Z,98298.92
2023-02-24T00:28:32.682Z,98294.25
2023-02-24T00:31:42.271Z,98293.52
2023-02-24T00:34:49.403Z,98292.31
2023-02-24T00:37:55.719Z,98287.71
2023-02-24T00:41:00.680Z,98284.92
2023-02-24T00:44:09.874Z,98281.73
2023-02-24T00:47:17.473Z,98282.26
2023-02-24T00:50:24.979Z,98277.20
2023-02-24T00:53:31.889Z,98275.69
2023-02-24T00:56:38.259Z,98277.84
2023-02-24T00:59:47.811Z,98274.73
2023-02-24T01:02:54.108Z,98273.63
2023-02-24T01:06:04.312Z,98271.68
2023-02-24T01:09:13.406Z,98264.70
2023-02-24T01:12:33.492Z,98258.25
2023-02-24T01:15:39.821Z,98254.70
2023-02-24T01:18:44.340Z,98254.66
2023-02-24T01:21:55.211Z,98247.77
2023-02-24T01:25:01.392Z,98247.80
2023-02-24T01:28:11.255Z,98243.75
2023-02-24T01:31:21.099Z,98241.29
2023-02-24T01:34:28.499Z,98232.63
2023-02-24T01:37:34.804Z,98228.57
2023-02-24T01:40:39.492Z,98221.49
2023-02-24T01:44:03.583Z,98220.77
2023-02-24T01:47:10.345Z,98225.80
2023-02-24T01:50:17.909Z,98230.44
2023-02-24T01:53:24.245Z,98226.91
2023-02-24T01:56:30.017Z,98227.73
2023-02-24T01:59:36.722Z,98221.65
2023-02-24T02:02:47.905Z,98217.36
2023-02-24T02:05:59.099Z,98216.08
2023-02-24T02:09:08.085Z,98211.33
2023-02-24T02:12:15.358Z,98208.69
2023-02-24T02:15:22.011Z,98210.97
2023-02-24T02:18:35.464Z,98204.05
2023-02-24T02:22:03.937Z,98201.61
2023-02-24T02:25:19.697Z,98191.09
2023-02-24T02:29:04.143Z,98190.91
2023-02-24T02:32:39.208Z,98189.30
2023-02-24T02:35:51.967Z,98189.33
2023-02-24T02:39:06.141Z,98186.20
2023-02-24T02:42:24.425Z,98187.02
2023-02-24T02:45:39.718Z,98180.52
2023-02-24T02:48:54.014Z,98174.32
2023-02-24T02:52:10.596Z,98167.00
2023-02-24T02:55:24.096Z,98168.92
2023-02-24T02:58:35.430Z,98162.46
2023-02-24T03:01:46.545Z,98161.39
2023-02-24T03:04:57.416Z,98163.64
2023-02-24T03:08:11.565Z,98161.34
2023-02-24T03:11:21.577Z,98158.83
2023-02-24T03:14:30.920Z,98161.28
2023-02-24T03:17:42.101Z,98159.85
2023-02-24T03:20:52.485Z,98155.81
2023-02-24T03:23:59.005Z,98155.35
2023-02-24T03:27:13.198Z,98154.23
2023-02-24T03:30:23.324Z,98157.21
2023-02-24T03:33:34.086Z,98155.34
2023-02-24T03:36:40.592Z,98154.98
2023-02-24T03:39:51.051Z,98151.16
2023-02-24T03:43:05.833Z,98147.78
2023-02-24T03:46:12.400Z,98146.41
2023-02-24T03:49:18.784Z,98142.55
2023-02-24T03:52:29.249Z,98140.19
2023-02-24T03:55:47.560Z,98138.11
2023-02-24T03:59:07.954Z,98132.75
2023-02-24T04:02:22.108Z,98133.63
2023-02-24T04:05:32.885Z,98126.73
2023-02-24T04:08:47.398Z,98116.64
2023-02-24T04:12:05.852Z,98112.92
2023-02-24T04:15:16.839Z,98111.66
2023-02-24T04:18:27.776Z,98106.69
2023-02-24T04:21:35.340Z,98101.63
2023-02-24T04:24:44.492Z,98098.08
2023-02-24T04:27:52.789Z,98091.27
2023-02-24T04:31:06.325Z,98081.85
2023-02-24T04:34:12.618Z,98077.33
2023-02-24T04:37:23.241Z,98076.42
2023-02-24T04:40:29.622Z,98076.27
2023-02-24T04:43:36.186Z,98074.16
2023-02-24T04:46:42.521Z,98068.45
2023-02-24T04:49:47.141Z,98060.08
2023-02-24T04:52:55.700Z,98056.06
2023-02-24T04:56:09.318Z,98052.86
2023-02-24T04:59:15.891Z,98046.75
2023-02-24T05:02:22.163Z,98037.39
2023-02-24T05:05:28.884Z,98035.52
2023-02-24T05:08:36.267Z,98029.10
2023-02-24T05:11:42.965Z,98028.06
2023-02-24T05:14:50.025Z,98021.15
2023-02-24T05:17:57.420Z,98022.56
2023-02-24T05:21:26.949Z,98023.05
2023-02-24T05:24:34.741Z,98022.13
2023-02-24T05:27:41.122Z,98023.91
2023-02-24T05:30:45.690Z,98018.99
2023-02-24T05:33:55.697Z,98018.52
2023-02-24T05:37:04.588Z,98019.14
2023-02-24T05:40:14.879Z,98017.73
2023-02-24T05:43:21.153Z,98018.48
2023-02-24T05:46:28.612Z,98015.52
2023-02-24T05:49:38.926Z,98010.77
2023-02-24T05:52:45.859Z,98011.92
2023-02-24T05:55:52.105Z,98010.16
2023-02-24T05:59:03.129Z,98014.28
2023-02-24T06:02:12.513Z,98011.66
2023-02-24T06:05:26.827Z,98012.64
2023-02-24T06:08:42.409Z,98014.93
2023-02-24T06:11:48.814Z,98012.60
2023-02-24T06:14:53.676Z,98006.65
2023-02-24T06:18:01.115Z,98000.77
2023-02-24T06:21:08.504Z,97997.95
2023-02-24T06:24:18.068Z,97991.79
2023-02-24T06:27:25.368Z,97991.55
2023-02-24T06:30:32.861Z,97990.44
2023-02-24T06:33:39.213Z,97987.23
2023-02-24T06:36:43.909Z,97984.52
2023-02-24T06:39:50.115Z,97979.14
2023-02-24T06:42:57.291Z,97975.10
2023-02-24T06:46:06.305Z,97976.36
2023-02-24T06:49:12.777Z,97976.70
2023-02-24T06:52:19.810Z,97976.91
2023-02-24T06:55:29.027Z,97973.20
2023-02-24T06:58:35.372Z,97973.09
2023-02-24T07:01:45.469Z,97970.64
2023-02-24T07:04:55.482Z,97964.44
2023-02-24T07:08:02.045Z,97959.96
2023-02-24T07:11:08.326Z,97952.32
2023-02-24T07:14:13.487Z,97947.53
2023-02-24T07:17:21.030Z,97946.57
2023-02-24T07:20:27.339Z,97944.21
2023-02-24T07:23:32.404Z,97939.63
2023-02-24T07:26:41.810Z,97935.77
2023-02-24T07:29:51.786Z,97933.44
2023-02-24T07:32:58.990Z,97929.77
2023-02-24T07:36:08.688Z,97923.55
2023-02-24T07:39:15.062Z,97919.78
2023-02-24T07:42:19.593Z,97921.95
2023-02-24T07:45:26.178Z,97916.90
2023-02-24T07:48:32.719Z,97911.72
2023-02-24T07:51:39.201Z,97906.59
2023-02-24T07:54:45.489Z,97902.96
2023-02-24T07:57:51.901Z,97901.73
2023-02-24T08:01:08.766Z,97895.86
2023-02-24T08:04:16.028Z,97892.90
2023-02-24T08:07:25.709Z,97887.83
2023-02-24T08:10:37.011Z,97889.03
2023-02-24T08:13:45.044Z,97884.04
2023-02-24T08:16:52.891Z,97885.14
2023-02-24T08:20:22.110Z,97879.30
2023-02-24T08:23:28.367Z,97872.43
2023-02-24T08:26:32.943Z,97868.16
2023-02-24T08:29:58.031Z,97868.50
2023-02-24T08:33:04.304Z,97861.58
2023-02-24T08:36:12.215Z,97861.52
2023-02-24T08:39:19.368Z,97857.31
2023-02-24T08:42:34.753Z,97852.99
2023-02-24T08:45:41.058Z,97849.69
2023-02-24T08:48:46.698Z,97841.91
2023-02-24T08:51:54.031Z,97841.26
2023-02-24T08:55:01.872Z,97838.86
2023-02-24T08:58:11.289Z,97839.10
2023-02-24T09:01:24.506Z,97839.61
2023-02-24T09:04:30.959Z,97841.52
2023-02-24T09:07:40.690Z,97839.70
2023-02-24T09:10:46.982Z,97834.66
2023-02-24T09:13:58.300Z,97834.04
2023-02-24T09:17:07.165Z,97830.77
2023-02-24T09:20:37.746Z,97831.10
2023-02-24T09:23:47.287Z,97832.35
2023-02-24T09:26:58.789Z,97829.22
2023-02-24T09:30:08.249Z,97821.81
2023-02-24T09:33:21.379Z,97815.79
2023-02-24T09:36:30.250Z,97813.77
2023-02-24T09:39:51.697Z,97810.89
2023-02-24T09:42:58.465Z,97804.34
2023-02-24T09:46:14.999Z,97802.45
2023-02-24T09:49:24.730Z,97802.41
2023-02-24T09:52:42.164Z,97802.43
2023-02-24T09:56:05.141Z,97798.04
2023-02-24T09:59:26.494Z,97791.29
2023-02-24T10:02:45.118Z,97794.06
2023-02-24T10:06:00.040Z,97794.83
2023-02-24T10:09:15.567Z,97789.39
2023-02-24T10:12:40.466Z,97782.16
2023-02-24T10:16:06.218Z,97779.45
2023-02-24T10:19:25.687Z,97773.52
2023-02-24T10:22:50.846Z,97769.73
2023-02-24T10:26:06.732Z,97766.94
2023-02-24T10:29:22.717Z,97756.17
2023-02-24T10:32:38.438Z,97752.97
2023-02-24T10:35:44.777Z,97749.02
2023-02-24T10:38:56.202Z,97739.95
2023-02-24T10:42:16.933Z,97735.21
2023-02-24T10:45:27.490Z,97727.57
2023-02-24T10:48:41.794Z,97720.10
2023-02-24T10:52:33.550Z,97709.55
2023-02-24T10:56:15.015Z,97705.09
2023-02-24T10:59:41.373Z,97697.23
2023-02-24T11:03:19.452Z,97693.23
2023-02-24T11:06:55.750Z,97682.53
2023-02-24T11:10:14.061Z,97681.84
2023-02-24T11:13:38.802Z,97674.55
2023-02-24T11:17:05.851Z,97665.42
2023-02-24T11:20:24.944Z,97658.86
2023-02-24T11:23:35.028Z,97651.17
2023-02-24T11:26:43.613Z,97646.25
2023-02-24T11:30:08.382Z,97639.01
2023-02-24T11:33:30.262Z,97629.84
2023-02-24T11:36:48.257Z,97628.00
2023-02-24T11:40:01.924Z,97624.15
2023-02-24T11:43:13.891Z,97618.83
2023-02-24T11:46:27.375Z,97618.48
2023-02-24T11:49:38.636Z,97611.08
2023-02-24T11:52:48.362Z,97608.47
2023-02-24T11:55:59.882Z,97600.72
2023-02-24T11:59:13.699Z,97597.27
2023-02-24T12:02:31.114Z,97592.23
2023-02-24T12:05:41.026Z,97592.02
2023-02-24T12:08:52.754Z,97587.60
2023-02-24T12:12:04.517Z,97580.38
2023-02-24T12:15:20.426Z,97574.70
2023-02-24T12:18:27.717Z,97569.23
2023-02-24T12:21:37.979Z,97560.89
2023-02-24T12:24:50.020Z,97557.63
2023-02-24T12:28:11.320Z,97552.30
2023-02-24T12:31:32.292Z,97549.54
2023-02-24T12:34:50.901Z,97543.29
2023-02-24T12:38:03.971Z,97537.88
2023-02-24T12:41:32.247Z,97536.02
2023-02-24T12:44:48.066Z,97537.89
2023-02-24T12:48:06.115Z,97536.95
2023-02-24T12:51:22.778Z,97536.12
2023-02-24T12:54:37.706Z,97537.04
2023-02-24T12:57:53.209Z,97535.75
2023-02-24T13:01:10.378Z,97530.73
2023-02-24T13:04:31.273Z,97529.61
2023-02-24T13:07:53.160Z,97526.88
2023-02-24T13:11:06.134Z,97526.91
2023-02-24T13:14:22.549Z,97523.64
2023-02-24T13:17:29.746Z,97523.70
2023-02-24T13:20:38.798Z,97524.55
2023-02-24T13:23:58.248Z,97525.47
2023-02-24T13:27:25.064Z,97526.80
2023-02-24T13:30:39.570Z,97520.86
2023-02-24T13:33:48.448Z,97515.14
2023-02-24T13:36:54.672Z,97506.91
2023-02-24T13:39:59.228Z,97504.73
2023-02-24T13:43:08.215Z,97500.98
2023-02-24T13:46:21.165Z,97500.75
2023-02-24T13:49:37.077Z,97498.04
2023-02-24T13:53:02.049Z,97493.36
2023-02-24T13:56:27.702Z,97482.42
2023-02-24T14:00:01.752Z,97481.32
2023-02-24T14:03:17.677Z,97474.58
2023-02-24T14:06:27.510Z,97474.02
2023-02-24T14:09:41.689Z,97473.23
2023-02-24T14:12:49.608Z,97473.70
2023-02-24T14:15:56.404Z,97472.43
2023-02-24T14:19:04.604Z,97471.14
2023-02-24T14:22:21.747Z,97467.46
2023-02-24T14:25:31.320Z,97465.74
2023-02-24T14:28:39.786Z,97462.88
2023-02-24T14:31:51.250Z,97457.70
2023-02-24T14:34:58.146Z,97450.71
2023-02-24T14:38:05.266Z,97445.34
2023-02-24T14:41:22.466Z,97443.95
2023-02-24T14:44:30.101Z,97438.60
2023-02-24T14:47:37.945Z,97433.24
2023-02-24T14:50:44.369Z,97423.63
2023-02-24T14:53:53.464Z,97420.98
2023-02-24T14:57:02.012Z,97418.17
2023-02-24T15:00:17.531Z,97407.25
2023-02-24T15:03:29.449Z,97404.70
2023-02-24T15:06:40.997Z,97400.52
2023-02-24T15:09:49.148Z,97390.56
2023-02-24T15:13:00.756Z,97384.20
2023-02-24T15:16:15.786Z,97376.29
2023-02-24T15:19:29.160Z,97372.22
2023-02-24T15:22:39.519Z,97365.04
2023-02-24T15:25:47.937Z,97357.77
2023-02-24T15:29:01.168Z,97354.23
2023-02-24T15:32:13.134Z,97346.40
2023-02-24T15:35:26.218Z,97347.58
2023-02-24T15:38:37.910Z,97351.15
2023-02-24T15:41:47.127Z,97344.40
2023-02-24T15:44:56.754Z,97341.88
2023-02-24T15:48:05.119Z,97348.68
2023-02-24T15:51:19.569Z,97354.46
2023-02-24T15:54:31.889Z,97363.98
2023-02-24T15:57:38.341Z,97360.72
2023-02-24T16:00:45.648Z,97362.55
2023-02-24T16:03:51.921Z,97358.38
2023-02-24T16:06:58.541Z,97350.20
2023-02-24T16:10:05.618Z,97342.97
2023-02-24T16:13:20.502Z,97340.75
2023-02-24T16:16:27.717Z,97342.53
2023-02-24T16:19:34.020Z,97341.23
2023-02-24T16:22:40.235Z,97346.17
2023-02-24T16:25:45.722Z,97348.64
2023-02-24T16:28:55.564Z,97346.02
2023-02-24T16:32:01.943Z,97350.95
2023-02-24T16:35:11.113Z,97355.29
2023-02-24T16:38:19.288Z,97355.49
2023-02-24T16:41:26.034Z,97352.17
2023-02-24T16:44:32.293Z,97352.06
2023-02-24T16:47:38.757Z,97353.16
2023-02-24T16:50:45.940Z,97347.33
2023-02-24T16:53:52.180Z,97342.25
2023-02-24T16:56:56.769Z,97338.70
2023-02-24T17:00:03.308Z,97335.14
2023-02-24T17:03:16.437Z,97333.02
2023-02-24T17:06:23.868Z,97325.73
2023-02-24T17:09:33.395Z,97315.25
2023-02-24T17:12:39.667Z,97310.07
2023-02-24T17:15:46.070Z,97305.83
2023-02-24T17:18:52.275Z,97302.77
2023-02-24T17:21:56.781Z,97292.77
2023-02-24T17:25:03.414Z,97290.02
2023-02-24T17:28:11.707Z,97288.91
2023-02-24T17:31:18.473Z,97284.57
2023-02-24T17:34:24.881Z,97283.77
2023-02-24T17:37:29.363Z,97283.62
2023-02-24T17:40:35.698Z,97286.09
2023-02-24T17:43:41.818Z,97281.85
2023-02-24T17:46:48.114Z,97282.33
2023-02-24T17:49:54.360Z,97281.63
2023-02-24T17:53:00.703Z,97287.65
2023-02-24T17:56:06.285Z,97287.13
2023-02-24T17:59:12.404Z,97282.75
2023-02-24T18:02:20.142Z,97281.17
2023-02-24T18:05:26.370Z,97265.16
2023-02-24T18:08:30.969Z,97257.24
2023-02-24T18:11:37.194Z,97251.35
2023-02-24T18:14:43.466Z,97248.05
2023-02-24T18:17:48.152Z,97242.11
2023-02-24T18:20:58.736Z,97238.32
2023-02-24T18:24:05.438Z,97235.67
2023-02-24T18:27:11.584Z,97233.64
2023-02-24T18:30:18.918Z,97228.63
2023-02-24T18:33:25.515Z,97222.63
2023-02-24T18:36:32.129Z,97223.02
2023-02-24T18:39:38.303Z,97218.89
2023-02-24T18:42:43.911Z,97218.68
2023-02-24T18:45:50.187Z,97217.89
2023-02-24T18:48:54.743Z,97213.30
2023-02-24T18:52:01.499Z,97210.78
2023-02-24T18:55:09.092Z,97210.95
2023-02-24T18:58:16.064Z,97207.81
2023-02-24T19:01:24.199Z,97200.52
2023-02-24T19:04:30.329Z,97200.65
2023-02-24T19:07:36.662Z,97194.77
2023-02-24T19:10:43.794Z,97186.61
2023-02-24T19:13:50.385Z,97183.86
2023-02-24T19:16:56.669Z,97179.59
2023-02-24T19:20:01.146Z,97177.21
2023-02-24T19:23:07.404Z,97175.52
2023-02-24T19:26:17.794Z,97175.73
2023-02-24T19:29:25.972Z,97170.11
2023-02-24T19:32:33.430Z,97170.73
2023-02-24T19:35:42.998Z,97163.77
2023-02-24T19:38:49.257Z,97155.91
2023-02-24T19:41:54.912Z,97152.13
2023-02-24T19:45:01.089Z,97147.90
2023-02-24T19:48:07.449Z,97145.93
2023-02-24T19:51:16.114Z,97139.38
2023-02-24T19:54:23.294Z,97134.02
2023-02-24T19:57:29.673Z,97137.77
2023-02-24T20:00:35.928Z,97136.99
2023-02-24T20:03:41.173Z,97129.98
2023-02-24T20:06:47.572Z,97120.31
2023-02-24T20:09:54.778Z,97118.27
2023-02-24T20:13:01.018Z,97115.55
2023-02-24T20:16:12.951Z,97106.24
2023-02-24T20:19:19.252Z,97098.91
2023-02-24T20:22:23.793Z,97094.78
2023-02-24T20:25:30.192Z,97091.10
2023-02-24T20:28:36.540Z,97083.48
2023-02-24T20:31:41.377Z,97074.92
2023-02-24T20:34:47.793Z,97067.11
2023-02-24T20:37:54.127Z,97057.88
2023-02-24T20:41:00.331Z,97050.36
2023-02-24T20:44:07.284Z,97043.16
2023-02-24T20:47:13.665Z,97036.77
2023-02-24T20:50:19.988Z,97033.78
2023-02-24T20:53:26.202Z,97026.84
2023-02-24T20:56:36.548Z,97019.33
2023-02-24T20:59:49.230Z,97013.55
2023-02-24T21:03:00.045Z,97008.29
2023-02-24T21:06:10.160Z,97002.27
2023-02-24T21:09:16.811Z,96995.20
2023-02-24T21:12:23.025Z,96986.18
2023-02-24T21:15:27.607Z,96976.50
2023-02-24T21:18:34.893Z,96972.17
2023-02-24T21:21:41.210Z,96971.83
2023-02-24T21:24:45.724Z,96972.11
2023-02-24T21:27:51.898Z,96968.92
2023-02-24T21:30:56.535Z,96963.77
2023-02-24T21:34:03.864Z,96966.11
2023-02-24T21:37:10.167Z,96964.82
2023-02-24T21:40:17.682Z,96989.27
2023-02-24T21:43:24.426Z,97014.41
2023-02-24T21:46:30.814Z,97018.73
2023-02-24T21:49:37.895Z,97003.08
2023-02-24T21:52:45.516Z,96987.77
2023-02-24T21:55:51.881Z,96982.66
2023-02-24T21:59:01.131Z,96975.98
2023-02-24T22:02:07.374Z,96970.93
2023-02-24T22:05:12.037Z,96960.04
2023-02-24T22:08:18.392Z,96953.73
2023-02-24T22:11:25.327Z,96945.56
2023-02-24T22:14:31.591Z,96936.95
2023-02-24T22:17:37.023Z,96923.70
2023-02-24T22:20:43.315Z,96919.23
2023-02-24T22:23:48.369Z,96918.52
2023-02-24T22:26:54.570Z,96914.38
2023-02-24T22:29:59.068Z,96905.52
2023-02-24T22:33:05.297Z,96894.88
2023-02-24T22:36:10.856Z,96893.55
2023-02-24T22:39:17.631Z,96889.59
2023-02-24T22:42:23.895Z,96884.41
2023-02-24T22:45:28.396Z,96873.88
2023-02-24T22:48:36.062Z,96868.96
2023-02-24T22:51:42.522Z,96866.65
2023-02-24T22:54:48.889Z,96864.55
2023-02-24T22:57:53.495Z,96855.98
2023-02-24T23:00:59.865Z,96844.59
2023-02-24T23:04:07.559Z,96830.45
2023-02-24T23:07:13.782Z,96820.31
2023-02-24T23:10:20.408Z,96816.83
2023-02-24T23:13:26.633Z,96818.00
2023-02-24T23:16:35.295Z,96817.77
2023-02-24T23:19:41.576Z,96817.30
2023-02-24T23:22:46.577Z,96816.69
2023-02-24T23:25:54.701Z,96814.85
2023-02-24T23:29:00.956Z,96814.15
2023-02-24T23:32:07.361Z,96811.41
2023-02-24T23:35:14.308Z,96808.52
2023-02-24T23:38:20.692Z,96801.54
2023-02-24T23:41:25.222Z,96795.08
2023-02-24T23:44:31.486Z,96792.20
2023-02-24T23:47:36.117Z,96787.61
2023-02-24T23:50:43.426Z,96779.23
2023-02-24T23:53:50.901Z,96774.10
2023-02-24T23:56:57.328Z,96768.08
